sensor_id;sensor_type;location;lat;lon;timestamp;P1;durP1;ratioP1;P2;durP2;ratioP2
13404;SDS011;6773;51.192;7.024;2024-01-30T00:01:45;9.33;;;7.33;;
13404;SDS011;6773;51.192;7.024;2024-01-30T00:04:11;10.53;;;7.70;;
13404;SDS011;6773;51.192;7.024;2024-01-30T00:06:37;12.33;;;7.83;;
13404;SDS011;6773;51.192;7.024;2024-01-30T00:09:03;10.00;;;7.20;;
13404;SDS011;6773;51.192;7.024;2024-01-30T00:11:30;10.17;;;7.47;;
13404;SDS011;6773;51.192;7.024;2024-01-30T00:13:56;9.20;;;7.50;;
13404;SDS011;6773;51.192;7.024;2024-01-30T00:16:22;8.90;;;6.93;;
13404;SDS011;6773;51.192;7.024;2024-01-30T00:18:52;12.33;;;7.30;;
13404;SDS011;6773;51.192;7.024;2024-01-30T00:21:18;10.07;;;7.23;;
13404;SDS011;6773;51.192;7.024;2024-01-30T00:23:44;10.43;;;7.73;;
13404;SDS011;6773;51.192;7.024;2024-01-30T00:26:10;9.40;;;8.03;;
13404;SDS011;6773;51.192;7.024;2024-01-30T00:28:36;11.43;;;8.00;;
13404;SDS011;6773;51.192;7.024;2024-01-30T00:31:02;9.73;;;7.40;;
13404;SDS011;6773;51.192;7.024;2024-01-30T00:33:29;10.93;;;7.43;;
13404;SDS011;6773;51.192;7.024;2024-01-30T00:35:55;9.83;;;7.00;;
13404;SDS011;6773;51.192;7.024;2024-01-30T00:38:21;9.03;;;7.57;;
13404;SDS011;6773;51.192;7.024;2024-01-30T00:40:47;8.80;;;7.13;;
13404;SDS011;6773;51.192;7.024;2024-01-30T00:43:13;13.17;;;8.57;;
13404;SDS011;6773;51.192;7.024;2024-01-30T00:45:40;11.40;;;7.40;;
13404;SDS011;6773;51.192;7.024;2024-01-30T00:48:06;13.87;;;7.87;;
13404;SDS011;6773;51.192;7.024;2024-01-30T00:50:31;11.07;;;7.20;;
13404;SDS011;6773;51.192;7.024;2024-01-30T00:52:57;11.33;;;7.43;;
13404;SDS011;6773;51.192;7.024;2024-01-30T00:55:23;10.00;;;7.67;;
13404;SDS011;6773;51.192;7.024;2024-01-30T00:57:49;12.00;;;7.50;;
13404;SDS011;6773;51.192;7.024;2024-01-30T01:00:15;11.80;;;7.60;;
13404;SDS011;6773;51.192;7.024;2024-01-30T01:02:43;8.07;;;7.13;;
13404;SDS011;6773;51.192;7.024;2024-01-30T01:05:09;9.37;;;7.87;;
13404;SDS011;6773;51.192;7.024;2024-01-30T01:07:35;9.80;;;7.67;;
13404;SDS011;6773;51.192;7.024;2024-01-30T01:10:01;9.07;;;7.27;;
13404;SDS011;6773;51.192;7.024;2024-01-30T01:12:27;10.97;;;7.93;;
13404;SDS011;6773;51.192;7.024;2024-01-30T01:14:53;11.90;;;7.73;;
13404;SDS011;6773;51.192;7.024;2024-01-30T01:17:19;11.70;;;8.43;;
13404;SDS011;6773;51.192;7.024;2024-01-30T01:19:45;9.73;;;7.40;;
13404;SDS011;6773;51.192;7.024;2024-01-30T01:22:11;13.53;;;8.23;;
13404;SDS011;6773;51.192;7.024;2024-01-30T01:24:37;12.43;;;7.87;;
13404;SDS011;6773;51.192;7.024;2024-01-30T01:27:03;11.20;;;7.53;;
13404;SDS011;6773;51.192;7.024;2024-01-30T01:29:29;11.23;;;7.50;;
13404;SDS011;6773;51.192;7.024;2024-01-30T01:31:55;12.30;;;8.10;;
13404;SDS011;6773;51.192;7.024;2024-01-30T01:34:21;9.73;;;7.00;;
13404;SDS011;6773;51.192;7.024;2024-01-30T01:36:49;8.50;;;7.17;;
13404;SDS011;6773;51.192;7.024;2024-01-30T01:39:15;13.37;;;7.23;;
13404;SDS011;6773;51.192;7.024;2024-01-30T01:41:41;11.00;;;7.67;;
13404;SDS011;6773;51.192;7.024;2024-01-30T01:44:07;9.23;;;7.23;;
13404;SDS011;6773;51.192;7.024;2024-01-30T01:46:33;10.10;;;7.40;;
13404;SDS011;6773;51.192;7.024;2024-01-30T01:49:00;11.40;;;7.90;;
13404;SDS011;6773;51.192;7.024;2024-01-30T01:51:30;11.57;;;7.90;;
13404;SDS011;6773;51.192;7.024;2024-01-30T01:53:58;9.97;;;7.30;;
13404;SDS011;6773;51.192;7.024;2024-01-30T01:56:30;11.23;;;7.40;;
13404;SDS011;6773;51.192;7.024;2024-01-30T01:58:59;9.93;;;7.37;;
13404;SDS011;6773;51.192;7.024;2024-01-30T02:01:26;9.03;;;7.63;;
13404;SDS011;6773;51.192;7.024;2024-01-30T02:03:53;13.30;;;7.40;;
13404;SDS011;6773;51.192;7.024;2024-01-30T02:06:19;12.97;;;7.73;;
13404;SDS011;6773;51.192;7.024;2024-01-30T02:08:45;8.97;;;7.20;;
13404;SDS011;6773;51.192;7.024;2024-01-30T02:11:11;11.47;;;8.23;;
13404;SDS011;6773;51.192;7.024;2024-01-30T02:13:38;10.63;;;7.53;;
13404;SDS011;6773;51.192;7.024;2024-01-30T02:16:04;10.30;;;7.50;;
13404;SDS011;6773;51.192;7.024;2024-01-30T02:18:30;10.43;;;7.17;;
13404;SDS011;6773;51.192;7.024;2024-01-30T02:20:56;10.90;;;7.00;;
13404;SDS011;6773;51.192;7.024;2024-01-30T02:23:26;11.57;;;8.10;;
13404;SDS011;6773;51.192;7.024;2024-01-30T02:25:52;10.00;;;6.93;;
13404;SDS011;6773;51.192;7.024;2024-01-30T02:28:19;11.03;;;7.80;;
13404;SDS011;6773;51.192;7.024;2024-01-30T02:30:45;10.30;;;7.33;;
13404;SDS011;6773;51.192;7.024;2024-01-30T02:33:11;9.83;;;6.80;;
13404;SDS011;6773;51.192;7.024;2024-01-30T02:35:40;9.80;;;7.43;;
13404;SDS011;6773;51.192;7.024;2024-01-30T02:38:05;8.47;;;6.93;;
13404;SDS011;6773;51.192;7.024;2024-01-30T02:40:31;11.13;;;7.53;;
13404;SDS011;6773;51.192;7.024;2024-01-30T02:42:58;10.27;;;7.40;;
13404;SDS011;6773;51.192;7.024;2024-01-30T02:45:24;10.93;;;7.30;;
13404;SDS011;6773;51.192;7.024;2024-01-30T02:47:50;8.03;;;6.70;;
13404;SDS011;6773;51.192;7.024;2024-01-30T02:50:16;8.63;;;6.87;;
13404;SDS011;6773;51.192;7.024;2024-01-30T02:52:42;10.03;;;6.77;;
13404;SDS011;6773;51.192;7.024;2024-01-30T02:55:11;9.63;;;7.13;;
13404;SDS011;6773;51.192;7.024;2024-01-30T02:57:37;9.30;;;6.67;;
13404;SDS011;6773;51.192;7.024;2024-01-30T03:00:04;10.97;;;7.50;;
13404;SDS011;6773;51.192;7.024;2024-01-30T03:02:34;7.77;;;6.50;;
13404;SDS011;6773;51.192;7.024;2024-01-30T03:05:00;11.87;;;7.00;;
13404;SDS011;6773;51.192;7.024;2024-01-30T03:07:25;8.57;;;6.97;;
13404;SDS011;6773;51.192;7.024;2024-01-30T03:09:51;9.07;;;7.00;;
13404;SDS011;6773;51.192;7.024;2024-01-30T03:12:17;11.17;;;7.07;;
13404;SDS011;6773;51.192;7.024;2024-01-30T03:14:43;9.13;;;6.93;;
13404;SDS011;6773;51.192;7.024;2024-01-30T03:17:09;11.43;;;7.40;;
13404;SDS011;6773;51.192;7.024;2024-01-30T03:19:35;15.70;;;7.87;;
13404;SDS011;6773;51.192;7.024;2024-01-30T03:22:01;11.40;;;7.40;;
13404;SDS011;6773;51.192;7.024;2024-01-30T03:24:27;12.17;;;7.57;;
13404;SDS011;6773;51.192;7.024;2024-01-30T03:26:53;12.20;;;7.80;;
13404;SDS011;6773;51.192;7.024;2024-01-30T03:29:19;9.43;;;6.93;;
13404;SDS011;6773;51.192;7.024;2024-01-30T03:31:45;10.40;;;6.60;;
13404;SDS011;6773;51.192;7.024;2024-01-30T03:34:11;8.63;;;7.10;;
13404;SDS011;6773;51.192;7.024;2024-01-30T03:36:37;9.87;;;6.40;;
13404;SDS011;6773;51.192;7.024;2024-01-30T03:39:03;9.40;;;6.73;;
13404;SDS011;6773;51.192;7.024;2024-01-30T03:41:29;9.90;;;6.87;;
13404;SDS011;6773;51.192;7.024;2024-01-30T03:43:55;7.90;;;6.40;;
13404;SDS011;6773;51.192;7.024;2024-01-30T03:46:21;10.27;;;7.17;;
13404;SDS011;6773;51.192;7.024;2024-01-30T03:48:47;10.00;;;7.00;;
13404;SDS011;6773;51.192;7.024;2024-01-30T03:51:13;11.10;;;7.47;;
13404;SDS011;6773;51.192;7.024;2024-01-30T03:53:43;10.80;;;6.60;;
13404;SDS011;6773;51.192;7.024;2024-01-30T03:56:11;8.10;;;6.43;;
13404;SDS011;6773;51.192;7.024;2024-01-30T03:58:38;9.70;;;6.63;;
13404;SDS011;6773;51.192;7.024;2024-01-30T04:01:04;8.27;;;6.30;;
13404;SDS011;6773;51.192;7.024;2024-01-30T04:03:30;8.63;;;6.73;;
13404;SDS011;6773;51.192;7.024;2024-01-30T04:05:56;8.27;;;5.93;;
13404;SDS011;6773;51.192;7.024;2024-01-30T04:08:21;10.40;;;7.17;;
13404;SDS011;6773;51.192;7.024;2024-01-30T04:10:47;12.37;;;6.77;;
13404;SDS011;6773;51.192;7.024;2024-01-30T04:13:13;8.97;;;6.70;;
13404;SDS011;6773;51.192;7.024;2024-01-30T04:15:39;8.47;;;6.43;;
13404;SDS011;6773;51.192;7.024;2024-01-30T04:18:06;9.97;;;7.10;;
13404;SDS011;6773;51.192;7.024;2024-01-30T04:20:32;8.57;;;6.23;;
13404;SDS011;6773;51.192;7.024;2024-01-30T04:22:58;8.40;;;6.70;;
13404;SDS011;6773;51.192;7.024;2024-01-30T04:25:23;9.43;;;6.63;;
13404;SDS011;6773;51.192;7.024;2024-01-30T04:27:49;9.33;;;6.40;;
13404;SDS011;6773;51.192;7.024;2024-01-30T04:30:15;8.60;;;6.20;;
13404;SDS011;6773;51.192;7.024;2024-01-30T04:32:42;8.17;;;6.40;;
13404;SDS011;6773;51.192;7.024;2024-01-30T04:35:08;7.83;;;6.17;;
13404;SDS011;6773;51.192;7.024;2024-01-30T04:37:34;8.70;;;6.63;;
13404;SDS011;6773;51.192;7.024;2024-01-30T04:40:00;14.57;;;7.27;;
13404;SDS011;6773;51.192;7.024;2024-01-30T04:42:27;8.23;;;6.10;;
13404;SDS011;6773;51.192;7.024;2024-01-30T04:44:53;6.80;;;6.03;;
13404;SDS011;6773;51.192;7.024;2024-01-30T04:47:19;7.07;;;6.37;;
13404;SDS011;6773;51.192;7.024;2024-01-30T04:49:45;8.50;;;6.13;;
13404;SDS011;6773;51.192;7.024;2024-01-30T04:52:11;8.13;;;5.97;;
13404;SDS011;6773;51.192;7.024;2024-01-30T04:54:37;9.07;;;6.70;;
13404;SDS011;6773;51.192;7.024;2024-01-30T04:57:03;9.33;;;6.80;;
13404;SDS011;6773;51.192;7.024;2024-01-30T04:59:30;11.07;;;7.23;;
13404;SDS011;6773;51.192;7.024;2024-01-30T05:01:56;8.40;;;6.57;;
13404;SDS011;6773;51.192;7.024;2024-01-30T05:04:22;7.90;;;6.07;;
13404;SDS011;6773;51.192;7.024;2024-01-30T05:06:48;11.00;;;6.30;;
13404;SDS011;6773;51.192;7.024;2024-01-30T05:09:14;7.80;;;6.20;;
13404;SDS011;6773;51.192;7.024;2024-01-30T05:11:40;9.67;;;6.47;;
13404;SDS011;6773;51.192;7.024;2024-01-30T05:14:06;6.97;;;6.27;;
13404;SDS011;6773;51.192;7.024;2024-01-30T05:16:33;7.47;;;6.17;;
13404;SDS011;6773;51.192;7.024;2024-01-30T05:18:59;9.47;;;6.60;;
13404;SDS011;6773;51.192;7.024;2024-01-30T05:21:25;7.57;;;6.27;;
13404;SDS011;6773;51.192;7.024;2024-01-30T05:23:51;8.07;;;6.07;;
13404;SDS011;6773;51.192;7.024;2024-01-30T05:26:17;9.90;;;6.50;;
13404;SDS011;6773;51.192;7.024;2024-01-30T05:28:43;10.60;;;6.00;;
13404;SDS011;6773;51.192;7.024;2024-01-30T05:31:09;11.70;;;6.77;;
13404;SDS011;6773;51.192;7.024;2024-01-30T05:33:35;6.87;;;5.63;;
13404;SDS011;6773;51.192;7.024;2024-01-30T05:36:02;11.27;;;6.43;;
13404;SDS011;6773;51.192;7.024;2024-01-30T05:38:28;7.23;;;5.40;;
13404;SDS011;6773;51.192;7.024;2024-01-30T05:40:54;9.23;;;5.87;;
13404;SDS011;6773;51.192;7.024;2024-01-30T05:43:20;8.27;;;5.70;;
13404;SDS011;6773;51.192;7.024;2024-01-30T05:45:45;6.90;;;5.20;;
13404;SDS011;6773;51.192;7.024;2024-01-30T05:48:11;8.13;;;5.37;;
13404;SDS011;6773;51.192;7.024;2024-01-30T05:50:37;7.23;;;5.90;;
13404;SDS011;6773;51.192;7.024;2024-01-30T05:53:03;8.40;;;5.40;;
13404;SDS011;6773;51.192;7.024;2024-01-30T05:55:29;8.20;;;5.77;;
13404;SDS011;6773;51.192;7.024;2024-01-30T05:57:55;8.30;;;5.70;;
13404;SDS011;6773;51.192;7.024;2024-01-30T06:00:21;8.47;;;6.30;;
13404;SDS011;6773;51.192;7.024;2024-01-30T06:02:47;7.80;;;5.63;;
13404;SDS011;6773;51.192;7.024;2024-01-30T06:05:13;9.53;;;5.80;;
13404;SDS011;6773;51.192;7.024;2024-01-30T06:07:39;8.97;;;5.77;;
13404;SDS011;6773;51.192;7.024;2024-01-30T06:10:05;6.77;;;5.63;;
13404;SDS011;6773;51.192;7.024;2024-01-30T06:12:32;8.17;;;6.40;;
13404;SDS011;6773;51.192;7.024;2024-01-30T06:14:58;8.07;;;5.80;;
13404;SDS011;6773;51.192;7.024;2024-01-30T06:17:24;7.40;;;6.27;;
13404;SDS011;6773;51.192;7.024;2024-01-30T06:19:50;7.83;;;5.80;;
13404;SDS011;6773;51.192;7.024;2024-01-30T06:22:16;8.57;;;6.10;;
13404;SDS011;6773;51.192;7.024;2024-01-30T06:24:42;10.63;;;6.30;;
13404;SDS011;6773;51.192;7.024;2024-01-30T06:27:10;10.23;;;6.03;;
13404;SDS011;6773;51.192;7.024;2024-01-30T06:29:36;7.47;;;5.80;;
13404;SDS011;6773;51.192;7.024;2024-01-30T06:32:02;8.70;;;6.03;;
13404;SDS011;6773;51.192;7.024;2024-01-30T06:34:28;8.80;;;6.50;;
13404;SDS011;6773;51.192;7.024;2024-01-30T06:36:54;9.83;;;6.80;;
13404;SDS011;6773;51.192;7.024;2024-01-30T06:39:20;9.47;;;6.50;;
13404;SDS011;6773;51.192;7.024;2024-01-30T06:41:46;8.70;;;6.13;;
13404;SDS011;6773;51.192;7.024;2024-01-30T06:44:13;8.03;;;6.97;;
13404;SDS011;6773;51.192;7.024;2024-01-30T06:46:39;7.33;;;6.13;;
13404;SDS011;6773;51.192;7.024;2024-01-30T06:49:05;8.17;;;5.83;;
13404;SDS011;6773;51.192;7.024;2024-01-30T06:51:30;10.80;;;6.37;;
13404;SDS011;6773;51.192;7.024;2024-01-30T06:53:57;8.73;;;6.47;;
13404;SDS011;6773;51.192;7.024;2024-01-30T06:56:22;7.20;;;5.90;;
13404;SDS011;6773;51.192;7.024;2024-01-30T06:58:49;7.73;;;6.07;;
13404;SDS011;6773;51.192;7.024;2024-01-30T07:01:15;9.70;;;6.30;;
13404;SDS011;6773;51.192;7.024;2024-01-30T07:03:41;10.63;;;6.87;;
13404;SDS011;6773;51.192;7.024;2024-01-30T07:06:07;9.80;;;6.67;;
13404;SDS011;6773;51.192;7.024;2024-01-30T07:08:34;7.03;;;5.97;;
13404;SDS011;6773;51.192;7.024;2024-01-30T07:11:00;8.77;;;6.30;;
13404;SDS011;6773;51.192;7.024;2024-01-30T07:13:26;10.23;;;6.17;;
13404;SDS011;6773;51.192;7.024;2024-01-30T07:15:53;9.30;;;6.47;;
13404;SDS011;6773;51.192;7.024;2024-01-30T07:18:19;8.87;;;6.57;;
13404;SDS011;6773;51.192;7.024;2024-01-30T07:20:45;9.90;;;6.83;;
13404;SDS011;6773;51.192;7.024;2024-01-30T07:23:12;10.93;;;6.33;;
13404;SDS011;6773;51.192;7.024;2024-01-30T07:25:41;15.97;;;9.13;;
13404;SDS011;6773;51.192;7.024;2024-01-30T07:28:07;19.17;;;11.40;;
13404;SDS011;6773;51.192;7.024;2024-01-30T07:30:41;9.73;;;6.67;;
13404;SDS011;6773;51.192;7.024;2024-01-30T07:33:07;9.17;;;6.87;;
13404;SDS011;6773;51.192;7.024;2024-01-30T07:35:33;8.80;;;7.17;;
13404;SDS011;6773;51.192;7.024;2024-01-30T07:37:59;10.37;;;6.80;;
13404;SDS011;6773;51.192;7.024;2024-01-30T07:40:25;8.00;;;6.23;;
13404;SDS011;6773;51.192;7.024;2024-01-30T07:42:53;9.63;;;5.90;;
13404;SDS011;6773;51.192;7.024;2024-01-30T07:45:19;9.80;;;5.70;;
13404;SDS011;6773;51.192;7.024;2024-01-30T07:47:48;11.20;;;6.13;;
13404;SDS011;6773;51.192;7.024;2024-01-30T07:50:14;7.27;;;5.80;;
13404;SDS011;6773;51.192;7.024;2024-01-30T07:52:40;8.20;;;6.30;;
13404;SDS011;6773;51.192;7.024;2024-01-30T07:55:06;11.97;;;7.53;;
13404;SDS011;6773;51.192;7.024;2024-01-30T07:57:33;7.43;;;6.10;;
13404;SDS011;6773;51.192;7.024;2024-01-30T07:59:59;8.47;;;6.07;;
13404;SDS011;6773;51.192;7.024;2024-01-30T08:02:25;8.07;;;6.30;;
13404;SDS011;6773;51.192;7.024;2024-01-30T08:04:51;11.27;;;7.00;;
13404;SDS011;6773;51.192;7.024;2024-01-30T08:07:17;11.40;;;6.80;;
13404;SDS011;6773;51.192;7.024;2024-01-30T08:09:43;8.27;;;6.77;;
13404;SDS011;6773;51.192;7.024;2024-01-30T08:12:09;11.13;;;6.50;;
13404;SDS011;6773;51.192;7.024;2024-01-30T08:14:34;9.93;;;6.57;;
13404;SDS011;6773;51.192;7.024;2024-01-30T08:17:00;8.90;;;6.23;;
13404;SDS011;6773;51.192;7.024;2024-01-30T08:19:26;9.70;;;6.83;;
13404;SDS011;6773;51.192;7.024;2024-01-30T08:21:52;11.20;;;6.83;;
13404;SDS011;6773;51.192;7.024;2024-01-30T08:24:18;9.27;;;7.03;;
13404;SDS011;6773;51.192;7.024;2024-01-30T08:26:44;10.47;;;7.87;;
13404;SDS011;6773;51.192;7.024;2024-01-30T08:29:10;10.97;;;7.33;;
13404;SDS011;6773;51.192;7.024;2024-01-30T08:31:36;10.80;;;7.40;;
13404;SDS011;6773;51.192;7.024;2024-01-30T08:34:02;11.83;;;7.47;;
13404;SDS011;6773;51.192;7.024;2024-01-30T08:36:28;6.77;;;6.00;;
13404;SDS011;6773;51.192;7.024;2024-01-30T08:38:54;8.13;;;6.57;;
13404;SDS011;6773;51.192;7.024;2024-01-30T08:41:20;9.17;;;6.03;;
13404;SDS011;6773;51.192;7.024;2024-01-30T08:43:45;8.83;;;6.60;;
13404;SDS011;6773;51.192;7.024;2024-01-30T08:46:11;12.50;;;6.83;;
13404;SDS011;6773;51.192;7.024;2024-01-30T08:48:37;7.77;;;6.40;;
13404;SDS011;6773;51.192;7.024;2024-01-30T08:51:02;9.70;;;6.20;;
13404;SDS011;6773;51.192;7.024;2024-01-30T08:53:28;11.20;;;6.57;;
13404;SDS011;6773;51.192;7.024;2024-01-30T08:55:54;10.13;;;6.20;;
13404;SDS011;6773;51.192;7.024;2024-01-30T08:58:20;7.80;;;6.20;;
13404;SDS011;6773;51.192;7.024;2024-01-30T09:00:47;8.20;;;6.17;;
13404;SDS011;6773;51.192;7.024;2024-01-30T09:03:13;7.77;;;5.73;;
13404;SDS011;6773;51.192;7.024;2024-01-30T09:05:39;9.00;;;5.70;;
13404;SDS011;6773;51.192;7.024;2024-01-30T09:08:05;7.00;;;5.77;;
13404;SDS011;6773;51.192;7.024;2024-01-30T09:10:31;7.10;;;6.07;;
13404;SDS011;6773;51.192;7.024;2024-01-30T09:12:57;12.20;;;6.70;;
13404;SDS011;6773;51.192;7.024;2024-01-30T09:15:23;7.60;;;6.10;;
13404;SDS011;6773;51.192;7.024;2024-01-30T09:17:49;8.70;;;6.20;;
13404;SDS011;6773;51.192;7.024;2024-01-30T09:20:15;9.33;;;6.27;;
13404;SDS011;6773;51.192;7.024;2024-01-30T09:22:41;7.37;;;5.87;;
13404;SDS011;6773;51.192;7.024;2024-01-30T09:25:07;7.83;;;5.97;;
13404;SDS011;6773;51.192;7.024;2024-01-30T09:27:33;7.70;;;5.83;;
13404;SDS011;6773;51.192;7.024;2024-01-30T09:29:59;7.27;;;5.40;;
13404;SDS011;6773;51.192;7.024;2024-01-30T09:32:25;7.70;;;6.20;;
13404;SDS011;6773;51.192;7.024;2024-01-30T09:34:51;7.73;;;5.87;;
13404;SDS011;6773;51.192;7.024;2024-01-30T09:37:17;7.30;;;5.40;;
13404;SDS011;6773;51.192;7.024;2024-01-30T09:39:43;7.53;;;5.70;;
13404;SDS011;6773;51.192;7.024;2024-01-30T09:42:28;7.53;;;5.47;;
13404;SDS011;6773;51.192;7.024;2024-01-30T09:44:57;6.70;;;5.17;;
13404;SDS011;6773;51.192;7.024;2024-01-30T09:47:23;8.47;;;5.40;;
13404;SDS011;6773;51.192;7.024;2024-01-30T09:49:49;6.83;;;5.33;;
13404;SDS011;6773;51.192;7.024;2024-01-30T09:52:16;12.67;;;6.13;;
13404;SDS011;6773;51.192;7.024;2024-01-30T09:54:43;6.03;;;4.90;;
13404;SDS011;6773;51.192;7.024;2024-01-30T09:57:11;8.33;;;5.50;;
13404;SDS011;6773;51.192;7.024;2024-01-30T09:59:38;8.63;;;5.17;;
13404;SDS011;6773;51.192;7.024;2024-01-30T10:02:03;8.13;;;5.43;;
13404;SDS011;6773;51.192;7.024;2024-01-30T10:04:30;8.33;;;5.90;;
13404;SDS011;6773;51.192;7.024;2024-01-30T10:06:56;7.50;;;5.73;;
13404;SDS011;6773;51.192;7.024;2024-01-30T10:09:23;9.03;;;5.20;;
13404;SDS011;6773;51.192;7.024;2024-01-30T10:11:50;9.40;;;5.67;;
13404;SDS011;6773;51.192;7.024;2024-01-30T10:14:16;6.20;;;5.23;;
13404;SDS011;6773;51.192;7.024;2024-01-30T10:16:42;7.73;;;6.10;;
13404;SDS011;6773;51.192;7.024;2024-01-30T10:19:10;10.23;;;6.07;;
13404;SDS011;6773;51.192;7.024;2024-01-30T10:21:36;7.93;;;5.70;;
13404;SDS011;6773;51.192;7.024;2024-01-30T10:24:02;8.50;;;5.50;;
13404;SDS011;6773;51.192;7.024;2024-01-30T10:26:28;6.87;;;5.83;;
13404;SDS011;6773;51.192;7.024;2024-01-30T10:28:54;8.40;;;5.47;;
13404;SDS011;6773;51.192;7.024;2024-01-30T10:31:20;8.77;;;5.53;;
13404;SDS011;6773;51.192;7.024;2024-01-30T10:33:46;8.80;;;5.63;;
13404;SDS011;6773;51.192;7.024;2024-01-30T10:36:13;9.63;;;5.90;;
13404;SDS011;6773;51.192;7.024;2024-01-30T10:38:40;7.30;;;5.80;;
13404;SDS011;6773;51.192;7.024;2024-01-30T10:41:07;14.43;;;6.13;;
13404;SDS011;6773;51.192;7.024;2024-01-30T10:43:40;10.03;;;6.00;;
13404;SDS011;6773;51.192;7.024;2024-01-30T10:46:10;6.77;;;5.63;;
13404;SDS011;6773;51.192;7.024;2024-01-30T10:48:39;8.63;;;6.10;;
13404;SDS011;6773;51.192;7.024;2024-01-30T10:51:07;8.00;;;6.37;;
13404;SDS011;6773;51.192;7.024;2024-01-30T10:53:34;7.97;;;5.73;;
13404;SDS011;6773;51.192;7.024;2024-01-30T10:56:01;8.47;;;5.53;;
13404;SDS011;6773;51.192;7.024;2024-01-30T10:58:27;8.23;;;5.70;;
13404;SDS011;6773;51.192;7.024;2024-01-30T11:00:54;6.90;;;5.30;;
13404;SDS011;6773;51.192;7.024;2024-01-30T11:03:20;8.47;;;5.33;;
13404;SDS011;6773;51.192;7.024;2024-01-30T11:05:50;8.10;;;5.50;;
13404;SDS011;6773;51.192;7.024;2024-01-30T11:08:22;7.67;;;5.30;;
13404;SDS011;6773;51.192;7.024;2024-01-30T11:10:54;7.87;;;5.27;;
13404;SDS011;6773;51.192;7.024;2024-01-30T11:13:21;10.37;;;5.33;;
13404;SDS011;6773;51.192;7.024;2024-01-30T11:15:50;8.63;;;5.57;;
13404;SDS011;6773;51.192;7.024;2024-01-30T11:18:24;7.33;;;5.60;;
13404;SDS011;6773;51.192;7.024;2024-01-30T11:20:51;7.93;;;4.90;;
13404;SDS011;6773;51.192;7.024;2024-01-30T11:23:17;6.47;;;5.23;;
13404;SDS011;6773;51.192;7.024;2024-01-30T11:25:43;9.17;;;5.10;;
13404;SDS011;6773;51.192;7.024;2024-01-30T11:28:16;5.70;;;4.93;;
13404;SDS011;6773;51.192;7.024;2024-01-30T11:30:42;8.07;;;5.43;;
13404;SDS011;6773;51.192;7.024;2024-01-30T11:33:09;9.40;;;5.70;;
13404;SDS011;6773;51.192;7.024;2024-01-30T11:35:40;7.70;;;4.67;;
13404;SDS011;6773;51.192;7.024;2024-01-30T11:38:07;9.70;;;5.30;;
13404;SDS011;6773;51.192;7.024;2024-01-30T11:40:35;7.40;;;5.10;;
13404;SDS011;6773;51.192;7.024;2024-01-30T11:43:02;9.00;;;5.43;;
13404;SDS011;6773;51.192;7.024;2024-01-30T11:45:29;9.10;;;6.70;;
13404;SDS011;6773;51.192;7.024;2024-01-30T11:47:56;9.37;;;6.33;;
13404;SDS011;6773;51.192;7.024;2024-01-30T11:50:22;7.70;;;5.17;;
13404;SDS011;6773;51.192;7.024;2024-01-30T11:52:49;8.87;;;5.60;;
13404;SDS011;6773;51.192;7.024;2024-01-30T11:55:16;9.27;;;5.97;;
13404;SDS011;6773;51.192;7.024;2024-01-30T11:57:42;7.97;;;5.53;;
13404;SDS011;6773;51.192;7.024;2024-01-30T12:00:16;7.40;;;5.00;;
13404;SDS011;6773;51.192;7.024;2024-01-30T12:02:49;7.60;;;5.33;;
13404;SDS011;6773;51.192;7.024;2024-01-30T12:05:16;8.77;;;5.10;;
13404;SDS011;6773;51.192;7.024;2024-01-30T12:07:45;9.90;;;5.57;;
13404;SDS011;6773;51.192;7.024;2024-01-30T12:10:12;9.50;;;6.13;;
13404;SDS011;6773;51.192;7.024;2024-01-30T12:12:39;10.67;;;5.50;;
13404;SDS011;6773;51.192;7.024;2024-01-30T12:15:06;7.47;;;5.27;;
13404;SDS011;6773;51.192;7.024;2024-01-30T12:17:33;11.07;;;5.80;;
13404;SDS011;6773;51.192;7.024;2024-01-30T12:20:04;7.03;;;5.40;;
13404;SDS011;6773;51.192;7.024;2024-01-30T12:22:32;11.23;;;5.80;;
13404;SDS011;6773;51.192;7.024;2024-01-30T12:24:58;9.83;;;5.80;;
13404;SDS011;6773;51.192;7.024;2024-01-30T12:27:24;7.43;;;5.47;;
13404;SDS011;6773;51.192;7.024;2024-01-30T12:29:55;10.37;;;6.20;;
13404;SDS011;6773;51.192;7.024;2024-01-30T12:32:22;7.87;;;6.07;;
13404;SDS011;6773;51.192;7.024;2024-01-30T12:34:48;8.40;;;6.03;;
13404;SDS011;6773;51.192;7.024;2024-01-30T12:37:14;9.63;;;6.50;;
13404;SDS011;6773;51.192;7.024;2024-01-30T12:39:46;8.13;;;6.30;;
13404;SDS011;6773;51.192;7.024;2024-01-30T12:42:12;7.23;;;5.73;;
13404;SDS011;6773;51.192;7.024;2024-01-30T12:44:38;8.43;;;5.80;;
13404;SDS011;6773;51.192;7.024;2024-01-30T12:47:04;8.30;;;6.40;;
13404;SDS011;6773;51.192;7.024;2024-01-30T12:49:31;8.30;;;6.03;;
13404;SDS011;6773;51.192;7.024;2024-01-30T12:51:58;8.83;;;6.00;;
13404;SDS011;6773;51.192;7.024;2024-01-30T12:54:24;8.87;;;6.57;;
13404;SDS011;6773;51.192;7.024;2024-01-30T12:56:49;7.30;;;6.23;;
13404;SDS011;6773;51.192;7.024;2024-01-30T12:59:15;8.23;;;6.20;;
13404;SDS011;6773;51.192;7.024;2024-01-30T13:01:41;9.17;;;5.83;;
13404;SDS011;6773;51.192;7.024;2024-01-30T13:04:07;9.80;;;5.60;;
13404;SDS011;6773;51.192;7.024;2024-01-30T13:06:33;9.03;;;5.87;;
13404;SDS011;6773;51.192;7.024;2024-01-30T13:08:59;8.13;;;6.23;;
13404;SDS011;6773;51.192;7.024;2024-01-30T13:11:25;9.77;;;7.23;;
13404;SDS011;6773;51.192;7.024;2024-01-30T13:13:51;7.67;;;5.50;;
13404;SDS011;6773;51.192;7.024;2024-01-30T13:16:17;11.17;;;6.53;;
13404;SDS011;6773;51.192;7.024;2024-01-30T13:18:43;10.77;;;7.33;;
13404;SDS011;6773;51.192;7.024;2024-01-30T13:21:09;11.20;;;6.90;;
13404;SDS011;6773;51.192;7.024;2024-01-30T13:23:35;10.27;;;6.30;;
13404;SDS011;6773;51.192;7.024;2024-01-30T13:26:01;9.33;;;6.40;;
13404;SDS011;6773;51.192;7.024;2024-01-30T13:28:27;10.63;;;6.13;;
13404;SDS011;6773;51.192;7.024;2024-01-30T13:30:53;8.57;;;5.47;;
13404;SDS011;6773;51.192;7.024;2024-01-30T13:33:19;8.80;;;5.70;;
13404;SDS011;6773;51.192;7.024;2024-01-30T13:35:45;7.07;;;5.60;;
13404;SDS011;6773;51.192;7.024;2024-01-30T13:38:11;9.23;;;5.90;;
13404;SDS011;6773;51.192;7.024;2024-01-30T13:40:38;9.30;;;5.73;;
13404;SDS011;6773;51.192;7.024;2024-01-30T13:43:04;8.17;;;5.47;;
13404;SDS011;6773;51.192;7.024;2024-01-30T13:45:30;8.10;;;5.60;;
13404;SDS011;6773;51.192;7.024;2024-01-30T13:47:55;7.27;;;5.23;;
13404;SDS011;6773;51.192;7.024;2024-01-30T13:50:21;9.57;;;6.03;;
13404;SDS011;6773;51.192;7.024;2024-01-30T13:52:47;7.00;;;5.23;;
13404;SDS011;6773;51.192;7.024;2024-01-30T13:55:13;8.43;;;6.37;;
13404;SDS011;6773;51.192;7.024;2024-01-30T13:57:39;8.27;;;5.93;;
13404;SDS011;6773;51.192;7.024;2024-01-30T14:00:06;11.97;;;6.30;;
13404;SDS011;6773;51.192;7.024;2024-01-30T14:02:32;8.80;;;5.90;;
13404;SDS011;6773;51.192;7.024;2024-01-30T14:04:58;8.77;;;5.97;;
13404;SDS011;6773;51.192;7.024;2024-01-30T14:07:24;9.20;;;6.67;;
13404;SDS011;6773;51.192;7.024;2024-01-30T14:09:50;9.17;;;6.03;;
13404;SDS011;6773;51.192;7.024;2024-01-30T14:12:16;7.77;;;5.93;;
13404;SDS011;6773;51.192;7.024;2024-01-30T14:14:42;7.50;;;6.17;;
13404;SDS011;6773;51.192;7.024;2024-01-30T14:17:08;10.23;;;6.70;;
13404;SDS011;6773;51.192;7.024;2024-01-30T14:19:34;9.57;;;6.50;;
13404;SDS011;6773;51.192;7.024;2024-01-30T14:22:01;11.90;;;6.73;;
13404;SDS011;6773;51.192;7.024;2024-01-30T14:24:26;9.20;;;6.40;;
13404;SDS011;6773;51.192;7.024;2024-01-30T14:26:52;12.43;;;6.60;;
13404;SDS011;6773;51.192;7.024;2024-01-30T14:29:18;9.47;;;6.50;;
13404;SDS011;6773;51.192;7.024;2024-01-30T14:31:44;10.00;;;6.23;;
13404;SDS011;6773;51.192;7.024;2024-01-30T14:34:10;8.23;;;6.20;;
13404;SDS011;6773;51.192;7.024;2024-01-30T14:36:37;8.57;;;6.73;;
13404;SDS011;6773;51.192;7.024;2024-01-30T14:39:03;10.70;;;6.30;;
13404;SDS011;6773;51.192;7.024;2024-01-30T14:41:29;12.00;;;7.07;;
13404;SDS011;6773;51.192;7.024;2024-01-30T14:43:55;9.53;;;6.90;;
13404;SDS011;6773;51.192;7.024;2024-01-30T14:46:21;12.77;;;6.70;;
13404;SDS011;6773;51.192;7.024;2024-01-30T14:48:47;8.47;;;6.30;;
13404;SDS011;6773;51.192;7.024;2024-01-30T14:51:13;10.80;;;6.43;;
13404;SDS011;6773;51.192;7.024;2024-01-30T14:53:38;12.80;;;6.87;;